Time;durP1;ratioP1;P1;durP2;ratioP2;P2;SDS_P1;SDS_P2;PMS_P1;PMS_P2;Temp;Humidity;BMP_temperature;BMP_pressure;BME280_temperature;BME280_humidity;BME280_pressure;Samples;Min_cycle;Max_cycle;Signal;HPM_P1;HPM_P2
2023/10/15 00:09:50;;;;;;;39.53;23.52;;;9.80;99.90;;;;;;25338985;23;20105;-59
2023/10/15 00:19:51;;;;;;;43.55;24.98;;;9.70;99.90;;;;;;25337438;23;20504;-59
2023/10/15 00:29:53;;;;;;;38.25;23.35;;;9.50;99.90;;;;;;25337367;23;20417;-52
2023/10/15 00:39:55;;;;;;;39.92;22.80;;;9.30;99.90;;;;;;25311539;23;20006;-59
2023/10/15 00:49:57;;;;;;;35.53;22.38;;;9.10;99.90;;;;;;25344722;23;20002;-59
2023/10/15 00:59:59;;;;;;;40.35;23.35;;;9.10;99.90;;;;;;25344983;23;20018;-59
2023/10/15 01:10:01;;;;;;;42.85;24.20;;;9.20;99.90;;;;;;25344709;23;20042;-59
2023/10/15 01:20:09;;;;;;;38.95;24.52;;;9.40;99.90;;;;;;25342681;23;20017;-59
2023/10/15 01:30:17;;;;;;;42.97;25.92;;;9.30;99.90;;;;;;25384286;23;20006;-58
2023/10/15 01:40:36;;;;;;;39.00;21.75;;;9.20;99.90;;;;;;25357783;23;20429;-59
2023/10/15 01:50:44;;;;;;;41.58;23.13;;;9.20;99.90;;;;;;25384871;23;20089;-59
2023/10/15 02:00:50;;;;;;;38.70;20.85;;;9.20;99.90;;;;;;25345589;23;20080;-59
2023/10/15 02:10:52;;;;;;;37.75;22.80;;;9.30;99.90;;;;;;25316124;23;20025;-58
2023/10/15 02:41:09;;;;;;;40.35;23.77;;;9.60;99.90;;;;;;25381508;23;20342;-59
2023/10/15 02:51:11;;;;;;;34.33;19.33;;;9.60;99.90;;;;;;25350283;23;20013;-59
2023/10/15 03:01:19;;;;;;;24.10;15.05;;;9.80;99.90;;;;;;25339665;23;20275;-58
2023/10/15 03:11:22;;;;;;;30.83;15.52;;;9.90;99.90;;;;;;25353545;23;20061;-59
2023/10/15 03:21:28;;;;;;;27.60;15.30;;;9.80;99.90;;;;;;25313258;23;20480;-59
2023/10/15 03:31:31;;;;;;;27.00;16.95;;;9.60;99.90;;;;;;25378470;23;20005;-48
2023/10/15 03:41:39;;;;;;;30.63;18.60;;;9.50;99.90;;;;;;25336365;23;20013;-57
2023/10/15 03:51:41;;;;;;;27.55;17.95;;;9.40;99.90;;;;;;25377668;23;20005;-48
2023/10/15 04:01:49;;;;;;;36.08;20.60;;;9.40;99.90;;;;;;25377703;23;20066;-59
2023/10/15 04:11:51;;;;;;;31.25;17.17;;;9.30;99.90;;;;;;25377210;23;20516;-58
2023/10/15 04:21:59;;;;;;;31.35;18.92;;;9.20;99.90;;;;;;25336897;23;20049;-54
2023/10/15 04:32:01;;;;;;;25.65;15.93;;;9.10;99.90;;;;;;25377013;23;20381;-59
2023/10/15 04:42:09;;;;;;;31.92;19.52;;;9.30;99.90;;;;;;25336215;23;20013;-55
2023/10/15 04:52:14;;;;;;;40.00;20.85;;;9.20;99.90;;;;;;25373660;23;20052;-59
2023/10/15 05:02:15;;;;;;;37.60;20.48;;;9.20;99.90;;;;;;25335928;23;20325;-50
2023/10/15 05:12:20;;;;;;;33.55;19.25;;;9.20;99.90;;;;;;25311095;23;20082;-58
2023/10/15 05:22:22;;;;;;;28.92;16.20;;;9.20;99.90;;;;;;25335958;23;20010;-49
2023/10/15 05:32:23;;;;;;;27.52;16.77;;;9.00;99.90;;;;;;25339669;23;20002;-59
2023/10/15 05:42:25;;;;;;;33.03;18.20;;;9.10;99.90;;;;;;25342200;23;20264;-59
2023/10/15 05:52:26;;;;;;;35.65;19.00;;;9.20;99.90;;;;;;25341880;23;20095;-59
2023/10/15 06:02:29;;;;;;;26.08;14.90;;;9.30;99.90;;;;;;25342762;23;20028;-52
2023/10/15 06:12:31;;;;;;;32.58;20.02;;;9.30;99.90;;;;;;25341661;23;20008;-59
2023/10/15 06:22:33;;;;;;;29.45;16.02;;;9.50;99.90;;;;;;25341119;23;20009;-51
2023/10/15 06:32:35;;;;;;;20.98;12.85;;;9.90;99.90;;;;;;25339661;23;20009;-49
2023/10/15 06:42:37;;;;;;;15.57;9.68;;;10.00;99.90;;;;;;25339346;23;20013;-59
2023/10/15 06:52:40;;;;;;;12.02;8.30;;;10.40;99.90;;;;;;25338316;23;20100;-59
2023/10/15 07:02:45;;;;;;;14.23;9.18;;;11.10;99.90;;;;;;25338424;23;20010;-53
2023/10/15 07:12:50;;;;;;;8.55;5.60;;;11.60;99.90;;;;;;25339472;23;20010;-51
2023/10/15 07:22:53;;;;;;;5.18;3.35;;;12.30;99.90;;;;;;25336562;23;20002;-59
2023/10/15 07:32:57;;;;;;;5.20;3.95;;;12.80;99.90;;;;;;25336420;23;20018;-60
2023/10/15 07:42:59;;;;;;;5.28;3.85;;;13.30;99.90;;;;;;25335697;23;20429;-60
2023/10/15 07:53:02;;;;;;;7.60;4.40;;;13.70;99.90;;;;;;25335836;23;20021;-60
2023/10/15 08:03:07;;;;;;;11.13;3.70;;;13.90;99.90;;;;;;25335788;23;20002;-53
2023/10/15 08:13:09;;;;;;;5.35;3.03;;;14.10;99.90;;;;;;25333322;23;20009;-61
2023/10/15 08:23:11;;;;;;;3.95;3.03;;;14.20;99.90;;;;;;25332936;23;20009;-61
2023/10/15 08:33:12;;;;;;;3.95;2.60;;;14.80;99.90;;;;;;25331978;23;20010;-62
2023/10/15 08:43:32;;;;;;;3.75;2.40;;;15.50;99.90;;;;;;25334800;23;20433;-62
2023/10/15 08:53:35;;;;;;;4.03;1.90;;;15.50;99.90;;;;;;25340985;23;20072;-62
2023/10/15 09:03:38;;;;;;;3.28;1.40;;;15.90;99.90;;;;;;25334700;23;20005;-62
2023/10/15 09:13:40;;;;;;;2.17;1.70;;;15.90;99.90;;;;;;25341601;23;20368;-62
2023/10/15 09:23:43;;;;;;;3.00;1.50;;;15.80;99.90;;;;;;25341555;23;20453;-62
2023/10/15 09:33:45;;;;;;;3.75;2.65;;;15.40;99.90;;;;;;25341283;23;20422;-63
2023/10/15 09:43:49;;;;;;;3.55;1.40;;;14.90;99.90;;;;;;25341803;23;20030;-62
2023/10/15 09:53:52;;;;;;;1.48;1.10;;;15.20;99.90;;;;;;25340547;23;20021;-59
2023/10/15 10:04:18;;;;;;;1.80;0.77;;;15.40;99.90;;;;;;25340338;23;20330;-62
2023/10/15 10:14:29;;;;;;;3.45;1.00;;;15.50;99.90;;;;;;25341582;23;20441;-61
2023/10/15 10:24:44;;;;;;;1.35;1.00;;;15.10;99.90;;;;;;25380459;23;20010;-61
2023/10/15 10:34:56;;;;;;;1.70;0.70;;;15.50;99.20;;;;;;25338978;23;20010;-61
2023/10/15 10:44:58;;;;;;;0.98;0.40;;;15.70;98.80;;;;;;25379082;23;20002;-61
2023/10/15 10:55:34;;;;;;;0.90;0.57;;;15.70;97.20;;;;;;25338483;23;20464;-61
2023/10/15 11:05:36;;;;;;;0.55;0.40;;;15.60;97.90;;;;;;25338169;23;20069;-61
2023/10/15 11:15:38;;;;;;;2.47;1.50;;;15.50;97.10;;;;;;25337219;23;20033;-61
2023/10/15 11:25:40;;;;;;;0.68;0.35;;;15.40;96.40;;;;;;25336759;23;20017;-52
2023/10/15 11:35:43;;;;;;;0.50;0.40;;;15.50;95.60;;;;;;25337789;23;20005;-61
2023/10/15 11:45:48;;;;;;;0.60;0.43;;;15.50;95.50;;;;;;25337528;23;20006;-61
2023/10/15 11:55:53;;;;;;;1.45;0.20;;;15.20;94.30;;;;;;25336464;23;20065;-61
2023/10/15 12:05:55;;;;;;;1.67;0.20;;;14.80;95.40;;;;;;25336863;23;20007;-61
2023/10/15 12:15:57;;;;;;;0.30;0.30;;;15.20;94.30;;;;;;25336695;23;20009;-54
2023/10/15 12:26:00;;;;;;;0.40;0.28;;;15.50;94.40;;;;;;25337383;23;20006;-52
2023/10/15 12:36:07;;;;;;;0.70;0.40;;;15.60;94.40;;;;;;25336067;23;20002;-62
2023/10/15 12:46:08;;;;;;;0.85;0.20;;;15.60;93.70;;;;;;25346004;23;20010;-52
2023/10/15 12:56:10;;;;;;;1.50;0.32;;;15.40;93.90;;;;;;25344176;23;20068;-62
2023/10/15 13:06:12;;;;;;;1.40;0.47;;;15.80;93.20;;;;;;25317430;23;20014;-51
2023/10/15 13:16:15;;;;;;;1.15;0.30;;;15.80;93.30;;;;;;25343390;23;20021;-62
2023/10/15 13:26:16;;;;;;;0.45;0.40;;;15.80;92.60;;;;;;25342608;23;20006;-62
2023/10/15 13:36:18;;;;;;;0.47;0.20;;;15.90;93.00;;;;;;25341942;23;20010;-62
2023/10/15 13:46:20;;;;;;;0.35;0.20;;;15.80;92.50;;;;;;25342550;23;20010;-61
2023/10/15 13:56:21;;;;;;;1.55;0.20;;;15.50;94.00;;;;;;25340654;23;20378;-61
2023/10/15 14:06:23;;;;;;;1.20;0.40;;;15.30;93.00;;;;;;25340409;23;20013;-62
2023/10/15 14:16:25;;;;;;;0.82;0.25;;;15.10;92.80;;;;;;25341031;23;20010;-61
2023/10/15 14:26:27;;;;;;;0.32;0.20;;;15.10;91.80;;;;;;25340023;23;20295;-61
2023/10/15 14:36:31;;;;;;;0.57;0.20;;;15.10;93.80;;;;;;25338201;23;20009;-62
2023/10/15 14:46:33;;;;;;;0.32;0.20;;;15.00;93.60;;;;;;25336999;23;20009;-61
2023/10/15 14:56:34;;;;;;;0.52;0.30;;;15.00;95.40;;;;;;25336790;23;20014;-60
2023/10/15 15:06:36;;;;;;;0.80;0.20;;;14.70;93.80;;;;;;25337036;23;20010;-61
2023/10/15 15:16:38;;;;;;;0.50;0.20;;;14.60;94.10;;;;;;25338263;23;20010;-61
2023/10/15 15:26:40;;;;;;;0.20;0.15;;;14.30;97.10;;;;;;25337993;23;20006;-60
2023/10/15 15:36:41;;;;;;;0.68;0.30;;;13.60;99.70;;;;;;25337617;23;20002;-60
2023/10/15 15:46:43;;;;;;;1.67;0.30;;;12.90;99.90;;;;;;25337898;23;20014;-60
2023/10/15 15:56:46;;;;;;;0.40;0.20;;;12.40;99.90;;;;;;25337138;23;20349;-60
2023/10/15 16:06:47;;;;;;;3.42;0.40;;;12.00;99.90;;;;;;25337063;23;20014;-52
2023/10/15 16:16:49;;;;;;;1.10;0.63;;;11.70;99.90;;;;;;25336965;23;20014;-60
2023/10/15 16:26:51;;;;;;;2.08;1.40;;;11.70;99.90;;;;;;25337309;23;20006;-60
2023/10/15 16:36:53;;;;;;;2.50;1.63;;;11.60;99.90;;;;;;25335240;23;20010;-60
2023/10/15 16:46:56;;;;;;;7.30;3.22;;;11.60;99.90;;;;;;25337325;23;20005;-60
2023/10/15 16:56:58;;;;;;;6.47;3.60;;;11.40;99.90;;;;;;25336724;23;20029;-60
2023/10/15 17:07:00;;;;;;;5.82;3.60;;;10.90;99.90;;;;;;25336695;23;20048;-60
2023/10/15 17:17:02;;;;;;;5.13;2.88;;;10.40;99.90;;;;;;25336667;23;20078;-60
2023/10/15 17:27:05;;;;;;;2.25;1.27;;;10.30;99.90;;;;;;25339379;23;20002;-60
2023/10/15 17:37:10;;;;;;;1.38;0.70;;;9.80;99.90;;;;;;25344121;23;20001;-59
2023/10/15 17:47:12;;;;;;;1.05;0.50;;;9.40;99.90;;;;;;25342549;23;20017;-49
2023/10/15 17:57:15;;;;;;;0.88;0.43;;;9.00;99.90;;;;;;25341732;23;20073;-59
2023/10/15 18:07:17;;;;;;;1.10;0.68;;;8.90;99.90;;;;;;25342028;23;20006;-59
2023/10/15 18:17:20;;;;;;;1.13;0.60;;;8.90;99.90;;;;;;25341949;23;20069;-59
2023/10/15 18:27:22;;;;;;;2.42;0.60;;;9.20;99.90;;;;;;25340970;23;20407;-50
2023/10/15 18:37:24;;;;;;;0.32;0.20;;;9.40;99.90;;;;;;25340861;23;20083;-60
2023/10/15 18:47:28;;;;;;;0.35;0.20;;;9.30;99.90;;;;;;25340720;23;20338;-52
2023/10/15 18:57:30;;;;;;;1.05;0.20;;;9.50;99.90;;;;;;25339845;23;20014;-59
2023/10/15 19:07:33;;;;;;;0.32;0.10;;;9.60;99.90;;;;;;25340077;23;20484;-49
2023/10/15 19:17:36;;;;;;;0.40;0.10;;;9.40;97.60;;;;;;25339337;23;20012;-50
2023/10/15 19:27:37;;;;;;;0.40;0.10;;;9.30;95.80;;;;;;25338821;23;20005;-59
2023/10/15 19:37:40;;;;;;;0.52;0.10;;;9.20;94.10;;;;;;25085396;23;20472;-53
2023/10/15 19:47:42;;;;;;;0.43;0.10;;;9.10;93.40;;;;;;25085378;23;20006;-59
2023/10/15 19:57:46;;;;;;;0.20;0.10;;;8.80;93.70;;;;;;25084610;23;20047;-59
2023/10/15 20:07:48;;;;;;;2.00;0.13;;;8.50;94.20;;;;;;25284678;23;20399;-59
2023/10/15 20:17:49;;;;;;;0.30;0.00;;;8.40;94.10;;;;;;25337067;23;20009;-59
2023/10/15 20:27:51;;;;;;;0.38;0.10;;;8.50;92.80;;;;;;25336628;23;20314;-50
2023/10/15 20:37:54;;;;;;;0.55;0.10;;;8.40;91.40;;;;;;25336010;23;20041;-59
2023/10/15 20:47:56;;;;;;;0.40;0.10;;;8.60;90.20;;;;;;25336684;23;20042;-59
2023/10/15 20:57:58;;;;;;;1.20;0.10;;;8.40;91.20;;;;;;25336954;23;20121;-49
2023/10/15 21:08:00;;;;;;;0.30;0.10;;;8.00;91.70;;;;;;25343941;23;20286;-59
2023/10/15 21:18:02;;;;;;;1.40;0.00;;;8.00;91.80;;;;;;25343559;23;20488;-58
2023/10/15 21:28:07;;;;;;;0.95;0.10;;;7.90;90.90;;;;;;25342769;23;20013;-51
2023/10/15 21:38:10;;;;;;;0.35;0.00;;;7.70;90.90;;;;;;25343275;23;20002;-59
2023/10/15 21:48:12;;;;;;;0.50;0.10;;;7.70;90.70;;;;;;25342745;23;20061;-51
2023/10/15 21:58:14;;;;;;;3.35;0.10;;;7.60;91.20;;;;;;25341935;23;20061;-58
2023/10/15 22:08:15;;;;;;;0.65;0.10;;;7.30;92.10;;;;;;25342138;23;20028;-58
2023/10/15 22:18:18;;;;;;;0.90;0.10;;;7.20;91.30;;;;;;25341370;23;20461;-58
2023/10/15 22:28:27;;;;;;;0.10;0.00;;;7.00;91.10;;;;;;25340542;23;20006;-58
2023/10/15 22:38:30;;;;;;;0.10;0.03;;;6.90;92.00;;;;;;25381038;23;20275;-50
2023/10/15 22:48:34;;;;;;;0.22;0.00;;;6.60;93.10;;;;;;25340112;23;20010;-58
2023/10/15 22:58:35;;;;;;;2.92;0.20;;;6.20;94.50;;;;;;25339690;23;20504;-58
2023/10/15 23:08:37;;;;;;;0.55;0.10;;;6.10;93.90;;;;;;25339355;23;20335;-49
2023/10/15 23:18:40;;;;;;;0.40;0.10;;;6.40;93.20;;;;;;25339035;23;20002;-59
2023/10/15 23:28:42;;;;;;;0.40;0.10;;;6.80;92.80;;;;;;25339865;23;20073;-59
2023/10/15 23:38:44;;;;;;;0.30;0.10;;;7.10;90.80;;;;;;25338165;23;20457;-58
2023/10/15 23:48:51;;;;;;;0.47;0.10;;;7.30;92.00;;;;;;25338171;23;20437;-49
2023/10/15 23:58:56;;;;;;;0.40;0.10;;;6.60;93.80;;;;;;25348446;23;20013;-49
